Rhenus Constanta — DK8899 — position and weather

sailwx.info

Track history (hours):
 
Tides and Currents Weather Stations Pressure Air Temp Water Temp Dewpoint Dewpoint Depression Visibility Wind Speed Wind Dir Waves Ship Positions

Rhenus Constanta

Last reported at 2017-Dec-12 13:32 UTC. Time now 2017-Dec-17 09:59 UTC.
Position N 43°45' E 023°58'.

Length 175 m; draft 2.5 m.

Type: Ship. MMSI: 211718220.

Date/timePositionNaut miles runAvg speedWind from/ knotsBaromVisibWave heightAir tempDewpointWater temp
2017-Dec-12 13:32N 43°45' E 023°58'  
2017-Dec-09 16:11N 44°19' E 028°03'1 3.4
2017-Dec-09 15:58N 44°18' E 028°03'3 5.6
2017-Dec-09 15:30N 44°16' E 028°06'3 5.6
2017-Dec-09 15:00N 44°16' E 028°10'3 5.6
2017-Dec-09 14:30N 44°15' E 028°14'3 5.0
2017-Dec-09 14:00N 44°15' E 028°17'2 4.8
2017-Dec-09 13:30N 44°15' E 028°21'2 5.0
2017-Dec-09 13:00N 44°13' E 028°23'2 4.8
2017-Dec-09 12:30N 44°11' E 028°24'5 4.7
2017-Dec-09 11:20N 44°06' E 028°28'2 4.6
2017-Dec-09 10:59N 44°06' E 028°31'2 4.8
2017-Dec-09 10:30N 44°06' E 028°34'2 4.6
2017-Dec-09 10:00N 44°06' E 028°37'0 0.6
2017-Dec-09 09:30N 44°06' E 028°37'1 2.1
2017-Dec-09 09:00N 44°06' E 028°39'1 1.5
2017-Dec-09 08:30N 44°07' E 028°39'0 0.0
2017-Dec-09 08:00N 44°07' E 028°39'1 1.8
2017-Dec-09 07:30N 44°06' E 028°39'0 0.0
2017-Dec-09 07:00N 44°06' E 028°39'0 0.0
2017-Dec-09 06:30N 44°06' E 028°39'0 0.0
2017-Dec-09 06:00N 44°06' E 028°39'0 0.0
2017-Dec-09 05:30N 44°06' E 028°39'1 1.8
2017-Dec-09 05:00N 44°07' E 028°39'0 0.5
2017-Dec-09 04:30N 44°07' E 028°39'1 2.9
2017-Dec-09 04:00N 44°06' E 028°37'0 0.1
2017-Dec-09 03:30N 44°06' E 028°37'1 1.5
2017-Dec-09 03:00N 44°06' E 028°36'1 2.7
2017-Dec-09 02:30N 44°06' E 028°34'5 5.1
2017-Dec-09 01:26N 44°07' E 028°27'3 5.3
2017-Dec-09 00:51N 44°10' E 028°25'2 5.3
2017-Dec-09 00:30N 44°11' E 028°24'2 4.6
2017-Dec-09 00:00N 44°14' E 028°22'2 4.1
2017-Dec-08 23:30N 44°15' E 028°20'2 3.5
2017-Dec-08 23:00N 44°15' E 028°18'2 4.8
2017-Dec-08 22:30N 44°15' E 028°15'2 4.9
2017-Dec-08 22:00N 44°16' E 028°11'2 4.8
2017-Dec-08 21:30N 44°16' E 028°08'2 4.8
2017-Dec-08 21:00N 44°17' E 028°05'  
Track history (hours):
 
Tides and Currents Weather Stations Pressure Air Temp Water Temp Dewpoint Dewpoint Depression Visibility Wind Speed Wind Dir Waves Ship Positions

Rhenus Constanta

Last reported at 2017-Dec-12 13:32 UTC. Time now 2017-Dec-17 09:59 UTC.
Position N 43°45' E 023°58'.

Length 175 m; draft 2.5 m.

Type: Ship. MMSI: 211718220.

Date/timePositionNaut miles runAvg speedWind from/ knotsBaromVisibWave heightAir tempDewpointWater temp
2017-Dec-12 13:32N 43°45' E 023°58'  
2017-Dec-09 16:11N 44°19' E 028°03'1 3.4
2017-Dec-09 15:58N 44°18' E 028°03'3 5.6
2017-Dec-09 15:30N 44°16' E 028°06'3 5.6
2017-Dec-09 15:00N 44°16' E 028°10'3 5.6
2017-Dec-09 14:30N 44°15' E 028°14'3 5.0
2017-Dec-09 14:00N 44°15' E 028°17'2 4.8
2017-Dec-09 13:30N 44°15' E 028°21'2 5.0
2017-Dec-09 13:00N 44°13' E 028°23'2 4.8
2017-Dec-09 12:30N 44°11' E 028°24'5 4.7
2017-Dec-09 11:20N 44°06' E 028°28'2 4.6
2017-Dec-09 10:59N 44°06' E 028°31'2 4.8
2017-Dec-09 10:30N 44°06' E 028°34'2 4.6
2017-Dec-09 10:00N 44°06' E 028°37'0 0.6
2017-Dec-09 09:30N 44°06' E 028°37'1 2.1
2017-Dec-09 09:00N 44°06' E 028°39'1 1.5
2017-Dec-09 08:30N 44°07' E 028°39'0 0.0
2017-Dec-09 08:00N 44°07' E 028°39'1 1.8
2017-Dec-09 07:30N 44°06' E 028°39'0 0.0
2017-Dec-09 07:00N 44°06' E 028°39'0 0.0
2017-Dec-09 06:30N 44°06' E 028°39'0 0.0
2017-Dec-09 06:00N 44°06' E 028°39'0 0.0
2017-Dec-09 05:30N 44°06' E 028°39'1 1.8
2017-Dec-09 05:00N 44°07' E 028°39'0 0.5
2017-Dec-09 04:30N 44°07' E 028°39'1 2.9
2017-Dec-09 04:00N 44°06' E 028°37'0 0.1
2017-Dec-09 03:30N 44°06' E 028°37'1 1.5
2017-Dec-09 03:00N 44°06' E 028°36'1 2.7
2017-Dec-09 02:30N 44°06' E 028°34'5 5.1
2017-Dec-09 01:26N 44°07' E 028°27'3 5.3
2017-Dec-09 00:51N 44°10' E 028°25'2 5.3
2017-Dec-09 00:30N 44°11' E 028°24'2 4.6
2017-Dec-09 00:00N 44°14' E 028°22'2 4.1
2017-Dec-08 23:30N 44°15' E 028°20'2 3.5
2017-Dec-08 23:00N 44°15' E 028°18'2 4.8
2017-Dec-08 22:30N 44°15' E 028°15'2 4.9
2017-Dec-08 22:00N 44°16' E 028°11'2 4.8
2017-Dec-08 21:30N 44°16' E 028°08'2 4.8
2017-Dec-08 21:00N 44°17' E 028°05'  

Dump ship's entire track history